Time;durP1;ratioP1;P1;durP2;ratioP2;P2;SDS_P1;SDS_P2;PMS_P1;PMS_P2;Temp;Humidity;BMP_temperature;BMP_pressure;BME280_temperature;BME280_humidity;BME280_pressure;Samples;Min_cycle;Max_cycle;Signal;HPM_P1;HPM_P2
2022/12/22 03:25:55;;;;;;;43.65;29.17;;;8.80;99.90;;;;;;5049041;28;20048;-55
2022/12/22 03:28:23;;;;;;;43.78;30.98;;;8.80;99.90;;;;;;5049400;28;20025;-55
2022/12/22 03:31:01;;;;;;;43.05;28.85;;;8.90;99.90;;;;;;5048219;28;20040;-56
2022/12/22 03:33:28;;;;;;;42.08;31.83;;;8.80;99.90;;;;;;5045601;28;20044;-55
2022/12/22 03:35:54;;;;;;;43.33;30.23;;;8.80;99.90;;;;;;5049277;28;20051;-56
2022/12/22 03:38:19;;;;;;;43.88;31.63;;;8.80;99.90;;;;;;5048799;28;20041;-56
2022/12/22 03:40:45;;;;;;;47.73;30.20;;;8.80;99.90;;;;;;5048975;28;20064;-56
2022/12/22 03:48:43;;;;;;;49.47;32.80;;;8.80;99.90;;;;;;5047771;28;20490;-52
2022/12/22 03:51:09;;;;;;;46.15;31.67;;;8.80;99.90;;;;;;5047651;28;20033;-54
2022/12/22 03:53:35;;;;;;;48.65;33.15;;;8.80;99.90;;;;;;5046899;28;20043;-54
2022/12/22 03:56:01;;;;;;;48.42;33.13;;;8.80;99.90;;;;;;5048425;28;20452;-52
2022/12/22 03:58:27;;;;;;;46.20;31.00;;;8.80;99.90;;;;;;5046484;28;20413;-53
2022/12/22 04:01:04;;;;;;;48.50;32.75;;;8.80;99.90;;;;;;5048901;28;20056;-53
2022/12/22 04:03:29;;;;;;;55.25;32.33;;;8.70;99.90;;;;;;5047519;28;20414;-52
2022/12/22 04:05:55;;;;;;;43.83;29.90;;;8.80;99.90;;;;;;5048545;28;20045;-54
2022/12/22 04:08:20;;;;;;;46.30;31.80;;;8.70;99.90;;;;;;5048059;28;20029;-55
2022/12/22 04:13:30;;;;;;;47.17;32.40;;;8.70;99.90;;;;;;5046742;28;20502;-55
2022/12/22 04:15:56;;;;;;;49.47;32.63;;;8.70;99.90;;;;;;5048356;28;20303;-51
2022/12/22 04:18:21;;;;;;;47.40;32.97;;;8.80;99.90;;;;;;5048294;28;20033;-53
2022/12/22 04:20:48;;;;;;;49.83;32.30;;;8.70;99.90;;;;;;5048394;28;20028;-54
2022/12/22 04:23:13;;;;;;;;;;;8.70;99.90;;;;;;5047605;28;20535;-54
2022/12/22 04:25:39;;;;;;;48.47;31.90;;;8.70;99.90;;;;;;5047623;28;20020;-52
2022/12/22 04:28:04;;;;;;;55.40;33.80;;;8.70;99.90;;;;;;5045444;28;20086;-51
2022/12/22 04:30:30;;;;;;;57.40;34.37;;;8.70;99.90;;;;;;5048246;28;20086;-54
2022/12/22 04:32:55;;;;;;;57.77;34.17;;;8.70;99.90;;;;;;5047619;28;20033;-53
2022/12/22 04:35:21;;;;;;;53.70;32.10;;;8.70;99.90;;;;;;5048129;28;20508;-54
2022/12/22 04:37:46;;;;;;;54.20;32.70;;;8.70;99.90;;;;;;5047690;28;20887;-53
2022/12/22 04:40:12;;;;;;;55.10;34.17;;;8.70;99.90;;;;;;5047728;28;20082;-55
2022/12/22 04:42:38;;;;;;;51.35;33.05;;;8.70;99.90;;;;;;5048158;28;20041;-52
2022/12/22 04:45:04;;;;;;;51.00;33.47;;;8.70;99.90;;;;;;5047161;28;20120;-52
2022/12/22 04:47:29;;;;;;;50.65;32.67;;;8.70;99.90;;;;;;5048010;28;20032;-52
2022/12/22 04:49:55;;;;;;;53.10;32.37;;;8.70;99.90;;;;;;5048211;28;20394;-52
2022/12/22 04:52:20;;;;;;;48.03;31.13;;;8.70;99.90;;;;;;5047935;28;20059;-52
2022/12/22 04:54:46;;;;;;;50.30;32.90;;;8.70;99.90;;;;;;5046387;28;20037;-52
2022/12/22 04:57:12;;;;;;;47.90;32.47;;;8.70;99.90;;;;;;5048050;28;20044;-54
2022/12/22 04:59:37;;;;;;;47.10;32.23;;;8.80;99.90;;;;;;5048519;28;20502;-52
2022/12/22 05:02:03;;;;;;;50.00;33.63;;;8.70;99.90;;;;;;5047127;28;20474;-54
2022/12/22 05:04:28;;;;;;;42.37;31.40;;;8.80;99.90;;;;;;5047229;28;20052;-52
2022/12/22 05:06:54;;;;;;;46.90;32.03;;;8.80;99.90;;;;;;5047698;28;20311;-52
2022/12/22 05:09:19;;;;;;;49.13;32.50;;;8.70;99.90;;;;;;5050021;28;20095;-55
2022/12/22 05:11:45;;;;;;;45.93;31.17;;;8.80;99.90;;;;;;5052168;28;20048;-55
2022/12/22 05:14:10;;;;;;;55.23;33.47;;;8.80;99.90;;;;;;5050097;28;20375;-56
2022/12/22 05:16:36;;;;;;;46.13;30.87;;;8.80;99.90;;;;;;5051959;28;20041;-53
2022/12/22 05:19:02;;;;;;;56.00;33.90;;;8.80;99.90;;;;;;5050946;28;20414;-53
2022/12/22 05:21:27;;;;;;;50.47;32.43;;;8.80;99.90;;;;;;5050373;28;20041;-55
2022/12/22 05:23:53;;;;;;;52.40;32.53;;;8.80;99.90;;;;;;5050176;28;20129;-54
2022/12/22 05:26:18;;;;;;;56.63;34.47;;;8.80;99.90;;;;;;5049888;28;20076;-54
2022/12/22 05:28:46;;;;;;;57.20;34.47;;;8.80;99.90;;;;;;5051306;28;20033;-54
2022/12/22 05:31:18;;;;;;;59.67;35.28;;;8.80;99.90;;;;;;5050893;28;20330;-56
2022/12/22 05:33:43;;;;;;;53.65;34.00;;;8.80;99.90;;;;;;5049362;28;20044;-55
2022/12/22 05:36:09;;;;;;;57.17;34.33;;;8.80;99.90;;;;;;5051537;28;20486;-56
2022/12/22 05:38:35;;;;;;;56.38;33.22;;;8.80;99.90;;;;;;5050614;28;20041;-55
2022/12/22 05:41:01;;;;;;;63.47;35.88;;;8.80;99.90;;;;;;5050990;28;20037;-55
2022/12/22 05:43:27;;;;;;;67.68;36.55;;;8.80;99.90;;;;;;5050064;28;20037;-54
2022/12/22 05:45:53;;;;;;;62.05;36.53;;;8.80;99.90;;;;;;5050059;28;20395;-55
2022/12/22 05:48:19;;;;;;;57.10;35.83;;;8.80;99.90;;;;;;5051038;28;20029;-55
2022/12/22 05:50:45;;;;;;;61.38;34.17;;;8.80;99.90;;;;;;5051131;28;20041;-56
2022/12/22 05:53:10;;;;;;;65.75;38.30;;;8.80;99.90;;;;;;5049178;28;20037;-56
2022/12/22 05:55:36;;;;;;;63.17;36.75;;;8.80;99.90;;;;;;5051062;28;20029;-56
2022/12/22 05:58:02;;;;;;;51.90;33.30;;;8.80;99.90;;;;;;5050258;28;20123;-56
2022/12/22 06:00:29;;;;;;;54.60;33.67;;;8.80;99.90;;;;;;5051125;28;20029;-56
2022/12/22 06:02:55;;;;;;;59.55;34.17;;;8.80;99.90;;;;;;5049630;28;20087;-56
2022/12/22 06:05:21;;;;;;;61.25;35.05;;;8.80;99.90;;;;;;5050687;28;20041;-55
2022/12/22 06:07:47;;;;;;;51.33;33.78;;;8.80;99.90;;;;;;5049551;28;20029;-53
2022/12/22 06:10:13;;;;;;;56.90;34.83;;;8.80;99.90;;;;;;5051148;28;20041;-52
2022/12/22 06:12:40;;;;;;;61.83;35.95;;;8.80;99.90;;;;;;5050334;28;20047;-51
2022/12/22 06:15:06;;;;;;;88.97;40.08;;;8.80;99.90;;;;;;5049805;28;20161;-55
2022/12/22 06:17:32;;;;;;;96.65;43.42;;;8.80;99.90;;;;;;5050312;28;20025;-54
2022/12/22 06:19:58;;;;;;;50.13;32.40;;;8.80;99.90;;;;;;5049862;28;20047;-51
2022/12/22 06:22:23;;;;;;;59.57;34.83;;;8.70;99.90;;;;;;5049927;28;20032;-54
2022/12/22 06:24:49;;;;;;;57.77;32.80;;;8.70;99.90;;;;;;5049444;28;20162;-51
2022/12/22 06:27:14;;;;;;;60.23;34.80;;;8.70;99.90;;;;;;5050120;28;20046;-51
2022/12/22 06:29:40;;;;;;;56.50;34.47;;;8.70;99.90;;;;;;5050464;28;20033;-51
2022/12/22 06:32:06;;;;;;;57.37;34.00;;;8.70;99.90;;;;;;5050011;28;20036;-53
2022/12/22 06:34:31;;;;;;;54.88;32.40;;;8.70;99.90;;;;;;5048973;28;20044;-53
2022/12/22 06:36:57;;;;;;;53.40;32.03;;;8.70;99.90;;;;;;5049981;28;20037;-52
2022/12/22 06:39:22;;;;;;;58.17;33.83;;;8.70;99.90;;;;;;5050281;28;20029;-54
2022/12/22 06:44:32;;;;;;;52.47;30.65;;;8.70;99.90;;;;;;5049099;28;20041;-53
2022/12/22 06:46:57;;;;;;;54.20;30.63;;;8.70;99.90;;;;;;5049926;28;20399;-53
2022/12/22 06:49:23;;;;;;;65.67;35.27;;;8.70;99.90;;;;;;5049298;28;20142;-51
2022/12/22 06:51:49;;;;;;;42.93;28.60;;;8.70;99.90;;;;;;5050043;28;20196;-51
2022/12/22 06:54:14;;;;;;;51.20;28.97;;;8.70;99.90;;;;;;5048851;28;20048;-52
2022/12/22 06:56:40;;;;;;;46.07;29.27;;;8.70;99.90;;;;;;5049874;28;20279;-55
2022/12/22 06:59:06;;;;;;;51.70;32.22;;;8.70;99.90;;;;;;5049864;28;20793;-51
2022/12/22 07:01:31;;;;;;;58.80;33.30;;;8.70;99.90;;;;;;5050011;28;20537;-51
2022/12/22 07:03:57;;;;;;;59.63;31.77;;;8.70;99.90;;;;;;5048112;28;20800;-51
2022/12/22 07:06:22;;;;;;;66.20;35.23;;;8.70;99.90;;;;;;5049688;28;20069;-54
2022/12/22 07:08:48;;;;;;;58.80;33.43;;;8.70;99.90;;;;;;5048921;28;20041;-52
2022/12/22 07:11:15;;;;;;;60.25;32.97;;;8.70;99.90;;;;;;5049286;28;20028;-52
2022/12/22 07:13:40;;;;;;;62.17;34.80;;;8.70;99.90;;;;;;5046369;28;20099;-51
2022/12/22 07:16:08;;;;;;;60.95;35.25;;;8.80;99.90;;;;;;5047439;28;20025;-53
2022/12/22 07:18:36;;;;;;;65.20;33.30;;;8.80;99.90;;;;;;5047987;28;20047;-54
2022/12/22 07:21:04;;;;;;;62.75;33.05;;;8.80;99.90;;;;;;5049470;28;20033;-55
2022/12/22 07:23:30;;;;;;;66.38;33.90;;;8.70;99.90;;;;;;5042796;28;20520;-53
2022/12/22 07:25:56;;;;;;;69.72;35.28;;;8.70;99.90;;;;;;5047676;28;20119;-55
2022/12/22 07:28:23;;;;;;;65.50;34.00;;;8.70;99.90;;;;;;5049128;28;20029;-52
2022/12/22 07:30:49;;;;;;;57.05;31.48;;;8.70;99.90;;;;;;5048716;28;20087;-52
2022/12/22 07:33:15;;;;;;;;;;;8.70;99.90;;;;;;5047740;28;20111;-51
2022/12/22 07:35:40;;;;;;;67.90;32.28;;;8.70;99.90;;;;;;5048301;28;20429;-54
2022/12/22 07:38:06;;;;;;;65.73;30.83;;;8.70;99.90;;;;;;5048809;28;20067;-56
2022/12/22 07:40:31;;;;;;;67.33;31.93;;;8.70;99.90;;;;;;5047928;28;20090;-53
2022/12/22 07:42:58;;;;;;;61.23;30.17;;;8.70;99.90;;;;;;5047962;28;20045;-51
2022/12/22 07:45:24;;;;;;;60.42;31.55;;;8.60;99.90;;;;;;5047220;28;20462;-55
2022/12/22 07:47:50;;;;;;;57.80;28.67;;;8.60;99.90;;;;;;5048037;28;20466;-54
2022/12/22 07:50:26;;;;;;;57.53;29.27;;;8.50;99.90;;;;;;5046174;28;20040;-55
2022/12/22 07:52:53;;;;;;;59.10;29.10;;;8.40;99.90;;;;;;5047949;28;20292;-57
2022/12/22 07:55:18;;;;;;;;;;;8.30;99.90;;;;;;5048415;28;20091;-55
2022/12/22 07:57:44;;;;;;;43.03;25.08;;;8.30;99.90;;;;;;5047924;28;19971;-56
2022/12/22 08:00:11;;;;;;;46.05;25.50;;;8.20;99.90;;;;;;5047914;28;20064;-56
2022/12/22 08:02:37;;;;;;;46.55;25.50;;;8.20;99.90;;;;;;5048352;28;20429;-55
2022/12/22 08:05:03;;;;;;;50.53;25.70;;;8.20;99.90;;;;;;5047424;28;20041;-56
2022/12/22 08:07:28;;;;;;;46.35;23.85;;;8.10;99.90;;;;;;5048138;28;20041;-56
2022/12/22 08:09:54;;;;;;;64.37;21.57;;;8.00;99.90;;;;;;5048411;28;20045;-55
2022/12/22 08:12:19;;;;;;;32.57;18.83;;;7.90;99.90;;;;;;5048313;28;20041;-56
2022/12/22 08:14:45;;;;;;;38.80;20.90;;;7.90;99.90;;;;;;5047197;28;20133;-53
2022/12/22 08:17:11;;;;;;;131.27;23.43;;;7.80;99.90;;;;;;5047759;28;20654;-55
2022/12/22 08:19:37;;;;;;;37.97;18.02;;;7.70;99.90;;;;;;5047221;28;20037;-56
2022/12/22 08:22:03;;;;;;;371.07;33.73;;;7.60;99.90;;;;;;5048397;28;20058;-56
2022/12/22 08:24:29;;;;;;;55.42;20.13;;;7.60;99.90;;;;;;5046872;28;20044;-54
2022/12/22 08:27:00;;;;;;;122.90;20.90;;;7.50;99.90;;;;;;5048141;28;20046;-52
2022/12/22 08:29:37;;;;;;;31.55;15.88;;;7.50;99.90;;;;;;5045323;28;20029;-51
2022/12/22 08:32:02;;;;;;;;;;;7.50;99.90;;;;;;5045803;28;20087;-53
2022/12/22 08:34:28;;;;;;;189.82;22.17;;;7.40;99.90;;;;;;5045565;28;20436;-52
2022/12/22 08:36:57;;;;;;;160.63;22.87;;;7.40;99.90;;;;;;5047567;28;20041;-51
2022/12/22 08:39:24;;;;;;;82.05;19.48;;;7.30;99.90;;;;;;5046563;28;20036;-51
2022/12/22 08:41:49;;;;;;;39.65;17.73;;;7.30;99.90;;;;;;5045499;28;20395;-55
2022/12/22 08:44:26;;;;;;;67.13;29.47;;;7.20;99.90;;;;;;5050567;28;20111;-54
2022/12/22 08:46:53;;;;;;;67.35;29.23;;;7.20;99.90;;;;;;5052427;28;20336;-55
2022/12/22 08:49:20;;;;;;;73.75;29.40;;;7.30;99.90;;;;;;5051689;28;20044;-54
2022/12/22 08:51:46;;;;;;;;;;;7.40;99.90;;;;;;5052056;28;20044;-55
2022/12/22 08:54:12;;;;;;;69.53;26.90;;;7.40;99.90;;;;;;5046270;28;19928;-53
2022/12/22 08:56:38;;;;;;;67.40;24.73;;;7.40;99.90;;;;;;5050359;28;20047;-55
2022/12/22 08:59:06;;;;;;;68.35;25.50;;;7.40;99.90;;;;;;5051910;28;20029;-52
2022/12/22 09:01:33;;;;;;;56.42;23.48;;;7.40;99.90;;;;;;5052161;28;20036;-53
2022/12/22 09:03:59;;;;;;;53.15;24.17;;;7.40;99.90;;;;;;5050699;28;20313;-52
2022/12/22 09:06:25;;;;;;;59.60;24.88;;;7.40;99.90;;;;;;5052189;28;20033;-52
2022/12/22 09:08:59;;;;;;;60.60;24.33;;;7.40;99.90;;;;;;5050846;28;20041;-52
2022/12/22 09:11:26;;;;;;;60.45;25.27;;;7.40;99.90;;;;;;5051174;28;20286;-54
2022/12/22 09:13:52;;;;;;;65.03;26.30;;;7.40;99.90;;;;;;5050824;28;20060;-51
2022/12/22 09:16:18;;;;;;;;;;;7.50;99.90;;;;;;5052473;28;20402;-51
2022/12/22 09:18:44;;;;;;;61.95;26.27;;;7.50;99.90;;;;;;5051238;28;20026;-51
2022/12/22 09:21:10;;;;;;;60.57;25.10;;;7.50;99.90;;;;;;5051752;28;20045;-52
2022/12/22 09:23:35;;;;;;;51.25;21.02;;;7.50;99.90;;;;;;5050007;28;20133;-52
2022/12/22 09:26:09;;;;;;;51.00;22.27;;;7.50;99.90;;;;;;5050133;28;20116;-53
2022/12/22 09:28:35;;;;;;;50.95;21.45;;;7.50;99.90;;;;;;5050887;28;20087;-54
2022/12/22 09:31:02;;;;;;;52.97;22.05;;;7.50;99.90;;;;;;5051169;28;20044;-53
2022/12/22 09:33:27;;;;;;;46.63;22.75;;;7.40;99.90;;;;;;5049935;28;20037;-54
2022/12/22 09:35:53;;;;;;;48.03;21.37;;;7.40;99.90;;;;;;5050892;28;20067;-52
2022/12/22 09:38:19;;;;;;;51.23;21.13;;;7.40;99.90;;;;;;5050678;28;20084;-55
2022/12/22 09:40:45;;;;;;;51.33;21.60;;;7.30;99.90;;;;;;5048676;28;20057;-51
2022/12/22 09:43:17;;;;;;;44.92;18.15;;;7.30;99.90;;;;;;5050163;28;20433;-51
2022/12/22 09:45:43;;;;;;;40.88;19.20;;;7.30;99.90;;;;;;5050870;28;20037;-55
2022/12/22 09:48:12;;;;;;;34.85;15.80;;;7.30;99.90;;;;;;5051056;28;20041;-52
2022/12/22 09:50:40;;;;;;;40.22;17.35;;;7.30;99.90;;;;;;5050395;28;20099;-55
2022/12/22 09:53:13;;;;;;;33.65;15.15;;;7.30;99.90;;;;;;5048697;28;20514;-56
2022/12/22 09:55:44;;;;;;;35.58;16.17;;;7.20;99.90;;;;;;5050162;28;20397;-54
2022/12/22 09:58:18;;;;;;;37.58;17.00;;;7.20;99.90;;;;;;5050573;28;20554;-53
2022/12/22 10:00:49;;;;;;;36.92;17.55;;;7.20;99.90;;;;;;5050521;28;20037;-56
2022/12/22 10:03:32;;;;;;;35.30;17.55;;;7.20;99.90;;;;;;5049599;28;20406;-55
2022/12/22 10:06:04;;;;;;;39.35;17.02;;;7.20;99.90;;;;;;5050526;28;20108;-55
2022/12/22 10:08:36;;;;;;;40.35;15.63;;;7.20;99.90;;;;;;5049044;28;20043;-54
2022/12/22 10:11:02;;;;;;;36.75;14.38;;;7.20;99.90;;;;;;5050741;28;20051;-55
2022/12/22 10:13:27;;;;;;;42.55;16.42;;;7.20;99.90;;;;;;5048982;28;20032;-55
2022/12/22 10:15:54;;;;;;;38.63;17.08;;;7.30;99.90;;;;;;5050258;28;20407;-55
2022/12/22 10:18:22;;;;;;;42.30;18.25;;;7.40;99.90;;;;;;5050069;28;20409;-56
2022/12/22 10:21:10;;;;;;;31.85;15.82;;;7.40;99.90;;;;;;5050482;28;20036;-55
2022/12/22 10:23:38;;;;;;;;;;;7.40;99.90;;;;;;5048362;28;20063;-55
2022/12/22 10:26:12;;;;;;;39.30;16.23;;;7.50;99.90;;;;;;5050017;28;19937;-55
2022/12/22 10:28:53;;;;;;;45.90;18.42;;;7.50;99.90;;;;;;5048819;28;20048;-56
2022/12/22 10:31:23;;;;;;;34.90;15.50;;;7.60;99.90;;;;;;5047913;28;20037;-55
2022/12/22 10:33:51;;;;;;;29.90;12.25;;;7.60;99.90;;;;;;5048129;28;20033;-55
2022/12/22 10:36:26;;;;;;;29.65;13.07;;;7.60;99.90;;;;;;5050254;28;20119;-57
2022/12/22 10:38:59;;;;;;;30.30;12.65;;;7.70;99.90;;;;;;5048911;28;20047;-56
2022/12/22 10:41:28;;;;;;;23.48;10.77;;;7.90;99.90;;;;;;5050638;28;20025;-55
2022/12/22 10:44:05;;;;;;;19.10;9.45;;;8.20;99.90;;;;;;5049539;28;20041;-54
2022/12/22 10:46:39;;;;;;;;;;;8.60;99.90;;;;;;5048965;28;20072;-53
2022/12/22 10:49:13;;;;;;;17.17;9.95;;;9.10;99.90;;;;;;5049394;28;20439;-56
2022/12/22 10:51:41;;;;;;;17.30;8.75;;;9.70;99.90;;;;;;5049920;28;20514;-56
2022/12/22 10:54:07;;;;;;;14.55;7.93;;;10.10;99.90;;;;;;5049497;28;20375;-55
2022/12/22 10:56:33;;;;;;;11.90;6.97;;;10.20;99.90;;;;;;5048993;28;20104;-53
2022/12/22 10:59:01;;;;;;;11.68;7.53;;;10.20;99.90;;;;;;5049865;28;20033;-56
2022/12/22 11:01:33;;;;;;;13.00;7.18;;;10.10;99.90;;;;;;5046375;28;20175;-52
2022/12/22 11:04:24;;;;;;;10.73;6.43;;;9.80;99.90;;;;;;5048922;28;20387;-54
2022/12/22 11:06:52;;;;;;;11.40;6.50;;;9.70;99.90;;;;;;5047192;28;20461;-53
2022/12/22 11:09:17;;;;;;;12.68;6.07;;;9.60;99.90;;;;;;5050818;28;20049;-53
2022/12/22 11:12:15;;;;;;;9.98;5.80;;;9.40;99.90;;;;;;5050586;28;20043;-55
2022/12/22 11:15:03;;;;;;;9.18;6.07;;;9.20;99.90;;;;;;5038121;28;20059;-52
2022/12/22 11:17:55;;;;;;;11.10;6.50;;;9.20;99.90;;;;;;5039968;28;20036;-52
2022/12/22 11:20:24;;;;;;;11.55;6.60;;;9.30;99.90;;;;;;5050122;28;20037;-55
2022/12/22 11:22:59;;;;;;;10.38;6.20;;;9.40;99.90;;;;;;5049336;28;20101;-55
2022/12/22 11:25:45;;;;;;;12.10;6.47;;;9.30;99.90;;;;;;5050704;28;20048;-52
2022/12/22 11:28:29;;;;;;;13.00;7.68;;;9.20;99.90;;;;;;5048331;28;20119;-54
2022/12/22 11:31:19;;;;;;;16.85;8.68;;;9.40;99.90;;;;;;5050660;28;20052;-54
2022/12/22 11:34:08;;;;;;;12.27;6.68;;;9.70;99.90;;;;;;5045975;28;20049;-53
2022/12/22 11:36:49;;;;;;;13.50;7.70;;;10.30;99.90;;;;;;5048786;28;20495;-53
2022/12/22 11:39:19;;;;;;;10.75;6.55;;;10.90;99.90;;;;;;5040985;28;20322;-57
2022/12/22 11:42:16;;;;;;;11.70;6.10;;;11.40;99.90;;;;;;5048522;28;20029;-54
2022/12/22 11:44:53;;;;;;;13.45;6.25;;;11.90;99.90;;;;;;5046535;28;20493;-56
2022/12/22 11:47:43;;;;;;;12.75;5.25;;;12.40;99.90;;;;;;5049149;28;20052;-53
2022/12/22 11:50:37;;;;;;;11.82;5.97;;;12.80;99.90;;;;;;5049422;28;20083;-54
2022/12/22 11:53:25;;;;;;;12.63;6.00;;;13.00;99.90;;;;;;5081484;28;20084;-57
2022/12/22 11:56:09;;;;;;;20.77;7.22;;;13.30;99.90;;;;;;5035522;28;20057;-52
2022/12/22 11:59:02;;;;;;;11.10;5.82;;;13.60;99.90;;;;;;5049211;28;20041;-57
2022/12/22 12:01:45;;;;;;;15.32;6.55;;;14.00;99.90;;;;;;5048101;28;20084;-56
2022/12/22 12:04:52;;;;;;;14.77;7.10;;;14.70;99.90;;;;;;5049003;28;20470;-53
2022/12/22 12:07:24;;;;;;;12.27;6.65;;;15.10;99.90;;;;;;5049193;28;20037;-56
2022/12/22 12:09:53;;;;;;;17.15;6.47;;;15.30;99.90;;;;;;5050258;28;20564;-56
2022/12/22 12:12:37;;;;;;;11.85;5.95;;;15.70;99.90;;;;;;5049524;28;20041;-54
2022/12/22 12:15:30;;;;;;;14.07;6.28;;;15.90;99.90;;;;;;5048884;28;20120;-56
2022/12/22 12:18:04;;;;;;;11.52;4.95;;;16.10;99.90;;;;;;5048752;28;20041;-52
2022/12/22 12:20:57;;;;;;;14.95;5.57;;;16.20;99.90;;;;;;5049161;28;20525;-56
2022/12/22 12:23:51;;;;;;;12.85;4.82;;;16.10;99.70;;;;;;5047932;28;20045;-55
2022/12/22 12:26:52;;;;;;;15.27;5.97;;;16.30;99.90;;;;;;5029765;28;20195;-56
2022/12/22 12:29:23;;;;;;;10.07;4.85;;;16.50;99.30;;;;;;5035003;28;20048;-55
2022/12/22 12:31:59;;;;;;;10.02;4.63;;;16.40;98.20;;;;;;5049652;28;20056;-55
2022/12/22 12:34:28;;;;;;;14.30;5.90;;;16.50;99.50;;;;;;5047198;28;20393;-55
2022/12/22 12:37:02;;;;;;;11.07;5.30;;;16.50;99.90;;;;;;5049389;28;20486;-56
2022/12/22 12:39:57;;;;;;;10.55;5.90;;;16.70;98.70;;;;;;5048363;28;20037;-58
2022/12/22 12:42:29;;;;;;;12.38;4.60;;;16.70;98.40;;;;;;5049278;28;20041;-57
2022/12/22 12:44:55;;;;;;;9.70;5.32;;;16.90;99.40;;;;;;5047991;28;20083;-56
2022/12/22 12:47:28;;;;;;;;;;;17.20;99.20;;;;;;5049539;28;20454;-56
2022/12/22 12:50:12;;;;;;;13.77;5.93;;;17.20;95.20;;;;;;5048510;28;19924;-56
2022/12/22 12:52:38;;;;;;;10.60;6.10;;;17.10;96.90;;;;;;5049512;28;20045;-55
2022/12/22 12:55:31;;;;;;;13.82;5.38;;;17.00;95.10;;;;;;5047882;28;20041;-56
2022/12/22 12:57:59;;;;;;;11.27;5.20;;;16.80;96.60;;;;;;5047478;28;20045;-57
2022/12/22 13:00:31;;;;;;;10.98;5.20;;;17.00;97.90;;;;;;5047892;28;20402;-57
2022/12/22 13:02:57;;;;;;;9.05;5.40;;;17.00;96.60;;;;;;5047171;28;20502;-57
2022/12/22 13:05:35;;;;;;;12.32;5.68;;;17.20;97.00;;;;;;5043193;28;20163;-57
2022/12/22 13:08:18;;;;;;;13.63;5.65;;;17.20;97.10;;;;;;5047984;28;20086;-57
2022/12/22 13:10:46;;;;;;;16.92;5.60;;;17.10;94.10;;;;;;5048345;28;20052;-52
2022/12/22 13:13:34;;;;;;;13.30;4.75;;;17.30;94.40;;;;;;5047866;28;20080;-54
2022/12/22 13:16:03;;;;;;;12.60;5.13;;;17.40;94.50;;;;;;5048954;28;20068;-53
2022/12/22 13:18:45;;;;;;;11.13;4.40;;;17.20;95.00;;;;;;5047222;28;20457;-55
2022/12/22 13:21:21;;;;;;;11.75;5.55;;;17.10;93.00;;;;;;5048472;28;20476;-56
2022/12/22 13:24:02;;;;;;;9.15;5.15;;;16.90;94.20;;;;;;5047676;28;20033;-56
2022/12/22 13:26:39;;;;;;;11.70;4.78;;;16.90;94.50;;;;;;5047776;28;20084;-57
2022/12/22 13:29:21;;;;;;;8.88;4.28;;;17.00;95.40;;;;;;5048893;28;20441;-56
2022/12/22 13:31:59;;;;;;;13.20;4.15;;;17.20;95.80;;;;;;5051649;28;20072;-52
2022/12/22 13:34:52;;;;;;;16.05;5.35;;;17.40;94.90;;;;;;5048350;28;20044;-54
2022/12/22 13:37:22;;;;;;;12.43;4.72;;;17.30;93.50;;;;;;5051002;28;20044;-57
2022/12/22 13:40:04;;;;;;;10.23;4.82;;;16.90;92.40;;;;;;5049773;28;20047;-53
2022/12/22 13:42:33;;;;;;;12.60;4.75;;;16.20;92.80;;;;;;5052270;28;20240;-56
2022/12/22 13:45:00;;;;;;;10.77;5.60;;;15.60;94.50;;;;;;5050794;28;20591;-55
2022/12/22 13:47:26;;;;;;;10.98;5.10;;;15.00;94.60;;;;;;5051897;28;20049;-52
2022/12/22 13:49:52;;;;;;;9.65;5.22;;;14.70;96.40;;;;;;5051676;28;20037;-52
2022/12/22 13:52:20;;;;;;;8.23;3.75;;;14.70;98.60;;;;;;5052035;28;20102;-52
2022/12/22 13:54:46;;;;;;;5.70;3.72;;;14.60;98.50;;;;;;5050839;28;20044;-53
2022/12/22 13:57:20;;;;;;;12.27;4.40;;;14.70;99.00;;;;;;5051708;28;20124;-52
2022/12/22 13:59:49;;;;;;;9.52;4.30;;;14.70;98.30;;;;;;5046753;28;20095;-55
2022/12/22 14:02:18;;;;;;;10.75;4.55;;;14.50;98.80;;;;;;5051060;28;20041;-53
2022/12/22 14:05:01;;;;;;;9.02;4.70;;;14.20;98.50;;;;;;5050506;28;20037;-54
2022/12/22 14:07:27;;;;;;;11.63;4.72;;;13.70;98.80;;;;;;5083359;28;20041;-54
2022/12/22 14:09:55;;;;;;;12.88;4.30;;;13.30;99.90;;;;;;5050849;28;20119;-51
2022/12/22 14:12:38;;;;;;;10.63;5.00;;;12.90;99.90;;;;;;5039780;28;20041;-51
2022/12/22 14:15:13;;;;;;;11.45;4.78;;;12.50;99.90;;;;;;5050631;28;20041;-57
2022/12/22 14:17:39;;;;;;;8.45;3.85;;;12.20;99.90;;;;;;5046335;28;20033;-57
2022/12/22 14:20:14;;;;;;;;;;;12.00;99.90;;;;;;5052424;28;20098;-53
2022/12/22 14:22:53;;;;;;;14.02;6.25;;;11.80;99.90;;;;;;5051000;28;20423;-57
2022/12/22 14:25:27;;;;;;;8.70;4.00;;;11.60;99.90;;;;;;5052143;28;20045;-56
2022/12/22 14:27:55;;;;;;;14.32;4.45;;;11.40;99.90;;;;;;5050197;28;20080;-53
2022/12/22 14:30:40;;;;;;;8.80;3.42;;;11.20;99.90;;;;;;5051483;28;20090;-55
2022/12/22 14:33:22;;;;;;;6.40;3.35;;;11.10;99.90;;;;;;5037894;28;20501;-54
2022/12/22 14:35:47;;;;;;;9.15;4.18;;;11.00;99.90;;;;;;5051200;28;20047;-56
2022/12/22 14:38:16;;;;;;;7.17;3.67;;;10.90;99.90;;;;;;5050211;28;20210;-54
2022/12/22 14:40:43;;;;;;;18.73;4.18;;;10.80;99.90;;;;;;5049774;28;20040;-56
2022/12/22 14:43:17;;;;;;;6.60;3.45;;;10.60;99.90;;;;;;5049547;28;20467;-56
2022/12/22 14:45:49;;;;;;;13.38;4.00;;;10.40;99.90;;;;;;5051483;28;20049;-55
2022/12/22 14:48:36;;;;;;;11.30;4.50;;;10.30;99.90;;;;;;5050840;28;20033;-52
2022/12/22 14:51:02;;;;;;;9.27;3.75;;;10.20;99.90;;;;;;5051337;28;20049;-54
2022/12/22 14:53:47;;;;;;;9.52;3.33;;;10.00;99.90;;;;;;5050256;28;20056;-55
2022/12/22 14:56:14;;;;;;;14.85;4.03;;;9.90;99.90;;;;;;5050217;28;20129;-54
2022/12/22 14:58:42;;;;;;;9.57;4.00;;;9.80;99.90;;;;;;5050597;28;20068;-52
2022/12/22 15:01:29;;;;;;;8.88;4.72;;;9.60;99.90;;;;;;5048532;28;20037;-52
2022/12/22 15:04:07;;;;;;;8.82;4.40;;;9.50;99.90;;;;;;5037063;28;20389;-55
2022/12/22 15:06:41;;;;;;;8.88;5.05;;;9.30;99.90;;;;;;5050471;28;20044;-55
2022/12/22 15:09:12;;;;;;;10.70;6.07;;;9.20;99.90;;;;;;5048915;28;20580;-56
2022/12/22 15:11:43;;;;;;;12.93;4.93;;;9.00;99.90;;;;;;5049240;28;20056;-55
2022/12/22 15:14:16;;;;;;;7.72;5.03;;;9.00;99.90;;;;;;5038720;28;20114;-57
2022/12/22 15:16:42;;;;;;;13.50;5.78;;;8.90;99.90;;;;;;5049059;28;20044;-55
2022/12/22 15:19:15;;;;;;;9.70;5.43;;;8.80;99.90;;;;;;5049833;28;20127;-55
2022/12/22 15:21:40;;;;;;;14.73;6.03;;;8.80;99.90;;;;;;5050030;28;20040;-55
2022/12/22 15:24:15;;;;;;;13.60;6.47;;;8.70;99.90;;;;;;5049596;28;20063;-54
2022/12/22 15:26:41;;;;;;;13.02;6.05;;;8.70;99.90;;;;;;5050488;28;20102;-55
2022/12/22 15:29:06;;;;;;;10.95;6.70;;;8.60;99.90;;;;;;5050859;28;20041;-54
2022/12/22 15:31:32;;;;;;;14.90;7.40;;;8.60;99.90;;;;;;5050469;28;20463;-58
2022/12/22 15:34:00;;;;;;;10.45;6.40;;;8.60;99.90;;;;;;5030423;28;20053;-53
2022/12/22 15:36:26;;;;;;;15.38;6.35;;;8.50;99.90;;;;;;5036672;28;20049;-53
2022/12/22 15:38:51;;;;;;;15.67;6.80;;;8.50;99.90;;;;;;5048474;28;20147;-56
2022/12/22 15:41:17;;;;;;;15.70;7.93;;;8.50;99.90;;;;;;5050319;28;20344;-55
2022/12/22 15:43:42;;;;;;;13.17;7.03;;;8.60;99.90;;;;;;5048445;28;20036;-51
2022/12/22 15:46:15;;;;;;;13.13;7.80;;;8.60;99.90;;;;;;5050437;28;20040;-54
2022/12/22 15:48:41;;;;;;;14.63;7.85;;;8.60;99.90;;;;;;5049500;28;20402;-52
2022/12/22 15:51:19;;;;;;;13.27;8.30;;;8.60;99.90;;;;;;5049419;28;20041;-51
2022/12/22 15:53:45;;;;;;;17.63;9.10;;;8.60;99.90;;;;;;5047984;28;20131;-53
2022/12/22 15:56:16;;;;;;;19.30;10.35;;;8.50;99.90;;;;;;5050146;28;20504;-54
2022/12/22 15:58:42;;;;;;;17.35;9.30;;;8.50;99.90;;;;;;5049223;28;20071;-51
2022/12/22 16:01:10;;;;;;;18.30;10.27;;;8.50;99.90;;;;;;5049960;28;20072;-50
2022/12/22 16:03:36;;;;;;;19.98;10.55;;;8.40;99.90;;;;;;5047566;28;20037;-51
2022/12/22 16:06:03;;;;;;;20.58;10.80;;;8.40;99.90;;;;;;5048903;28;20402;-54
2022/12/22 16:08:36;;;;;;;18.35;10.90;;;8.40;99.90;;;;;;5046833;28;20033;-55
2022/12/22 16:11:03;;;;;;;24.98;12.35;;;8.40;99.90;;;;;;5048153;28;20036;-52
2022/12/22 16:13:29;;;;;;;24.40;13.02;;;8.40;99.90;;;;;;5048529;28;20044;-51
2022/12/22 16:15:55;;;;;;;20.13;12.25;;;8.40;99.90;;;;;;5048923;28;20656;-54
2022/12/22 16:18:20;;;;;;;23.25;14.10;;;8.30;99.90;;;;;;5049386;28;20045;-52
2022/12/22 16:20:48;;;;;;;28.13;15.23;;;8.30;99.90;;;;;;5049617;28;20028;-53
2022/12/22 16:23:17;;;;;;;26.92;13.25;;;8.30;99.90;;;;;;5046709;28;20045;-52
2022/12/22 16:25:44;;;;;;;21.60;13.20;;;8.30;99.90;;;;;;5048462;28;20085;-52
2022/12/22 16:28:21;;;;;;;23.23;15.10;;;8.30;99.90;;;;;;5046425;28;20044;-51
2022/12/22 16:30:47;;;;;;;26.35;14.00;;;8.30;99.90;;;;;;5055401;28;20096;-51
2022/12/22 16:33:13;;;;;;;23.23;14.73;;;8.30;99.90;;;;;;5048240;28;20072;-52
2022/12/22 16:35:39;;;;;;;;;;;8.30;99.90;;;;;;5049900;28;20138;-54